createdAt,value
2019-05-23T00:01:15.966Z,20.03
2019-05-23T00:04:15.030Z,19.13
2019-05-23T00:06:45.373Z,20.87
2019-05-23T00:09:15.060Z,23.10
2019-05-23T00:11:47.454Z,20.90
2019-05-23T00:14:22.330Z,21.23
2019-05-23T00:16:52.498Z,20.83
2019-05-23T00:19:23.861Z,20.77
2019-05-23T00:21:53.880Z,18.60
2019-05-23T00:24:23.875Z,17.13
2019-05-23T00:26:54.741Z,16.20
2019-05-23T00:29:25.898Z,17.40
2019-05-23T00:32:01.085Z,17.77
2019-05-23T00:34:34.006Z,17.20
2019-05-23T00:37:06.958Z,18.50
2019-05-23T00:39:37.930Z,16.70
2019-05-23T00:42:10.219Z,16.67
2019-05-23T00:44:41.009Z,17.47
2019-05-23T00:47:13.753Z,18.17
2019-05-23T00:49:44.341Z,18.00
2019-05-23T00:52:14.909Z,15.60
2019-05-23T00:54:45.380Z,15.90
2019-05-23T00:57:16.223Z,15.73
2019-05-23T00:59:47.794Z,13.90
2019-05-23T01:02:18.089Z,12.93
2019-05-23T01:04:49.299Z,11.27
2019-05-23T01:07:20.829Z,10.20
2019-05-23T01:09:52.139Z,9.87
2019-05-23T01:12:25.149Z,9.10
2019-05-23T01:14:56.127Z,9.80
2019-05-23T01:17:29.073Z,9.88
2019-05-23T01:19:58.851Z,8.65
2019-05-23T01:22:30.445Z,7.90
2019-05-23T01:25:00.961Z,8.13
2019-05-23T01:27:31.668Z,8.20
2019-05-23T01:30:03.638Z,8.40
2019-05-23T01:32:44.420Z,7.85
2019-05-23T01:35:17.368Z,7.17
2019-05-23T01:37:48.357Z,7.40
2019-05-23T01:40:19.962Z,7.70
2019-05-23T01:42:51.606Z,7.53
2019-05-23T01:45:22.826Z,7.07
2019-05-23T01:47:53.433Z,6.17
2019-05-23T01:50:25.230Z,5.57
2019-05-23T01:52:56.024Z,4.97
2019-05-23T01:55:27.415Z,5.30
2019-05-23T01:57:58.342Z,5.17
2019-05-23T02:00:31.394Z,5.00
2019-05-23T02:03:02.048Z,5.13
2019-05-23T02:05:33.349Z,5.27
2019-05-23T02:08:04.047Z,4.63
2019-05-23T02:10:34.455Z,6.20
2019-05-23T02:13:04.904Z,5.13
2019-05-23T02:15:35.924Z,5.72
2019-05-23T02:18:06.377Z,4.87
2019-05-23T02:20:37.112Z,5.10
2019-05-23T02:23:08.070Z,5.07
2019-05-23T02:25:38.282Z,6.70
2019-05-23T02:28:10.159Z,8.77
2019-05-23T02:30:40.849Z,12.65
2019-05-23T02:33:12.382Z,12.03
2019-05-23T02:35:43.330Z,12.27
2019-05-23T02:38:24.925Z,12.47
2019-05-23T02:41:14.283Z,11.80
2019-05-23T02:43:49.022Z,12.43
2019-05-23T02:46:30.105Z,12.40
2019-05-23T02:49:04.083Z,12.63
2019-05-23T02:51:37.111Z,12.80
2019-05-23T02:54:12.042Z,13.23
2019-05-23T02:56:41.722Z,12.73
2019-05-23T02:59:46.413Z,13.20
2019-05-23T03:02:46.233Z,12.47
2019-05-23T03:05:17.692Z,13.67
2019-05-23T03:07:47.425Z,13.73
2019-05-23T03:10:20.779Z,11.97
2019-05-23T03:12:53.492Z,10.67
2019-05-23T03:15:27.385Z,10.27
2019-05-23T03:18:00.657Z,10.00
2019-05-23T03:20:31.329Z,9.80
2019-05-23T03:23:08.574Z,9.87
2019-05-23T03:25:59.173Z,9.98
2019-05-23T03:28:29.639Z,8.37
2019-05-23T03:31:26.878Z,9.97
2019-05-23T03:33:37.777Z,7.57
2019-05-23T03:36:08.511Z,7.67
2019-05-23T03:38:38.201Z,7.60
2019-05-23T03:41:08.433Z,7.00
2019-05-23T03:43:39.472Z,7.33
2019-05-23T03:46:12.628Z,7.43
2019-05-23T03:48:43.065Z,7.12
2019-05-23T03:51:13.168Z,7.10
2019-05-23T03:53:45.543Z,6.00
2019-05-23T03:56:16.671Z,6.10
2019-05-23T03:58:47.837Z,5.70
2019-05-23T04:01:19.607Z,5.10
2019-05-23T04:03:50.513Z,5.00
2019-05-23T04:06:22.558Z,5.13
2019-05-23T04:08:53.090Z,4.80
2019-05-23T04:11:23.321Z,4.73
2019-05-23T04:13:54.123Z,4.70
2019-05-23T04:16:24.879Z,4.50
2019-05-23T04:18:55.702Z,4.40
2019-05-23T04:21:26.171Z,4.47
2019-05-23T04:23:57.105Z,4.40
2019-05-23T04:26:27.859Z,4.15
2019-05-23T04:28:58.778Z,3.57
2019-05-23T04:31:29.453Z,3.60
2019-05-23T04:33:59.264Z,3.93
2019-05-23T04:36:29.641Z,3.67
2019-05-23T04:38:59.740Z,4.00
2019-05-23T04:41:29.975Z,3.73
2019-05-23T04:44:00.215Z,3.90
2019-05-23T04:46:30.567Z,3.90
2019-05-23T04:49:01.180Z,3.50
2019-05-23T04:51:30.863Z,5.40
2019-05-23T04:54:01.983Z,5.33
2019-05-23T04:56:32.799Z,6.00
2019-05-23T04:59:03.860Z,11.17
2019-05-23T05:01:34.607Z,16.73
2019-05-23T05:04:05.609Z,20.47
2019-05-23T05:06:36.210Z,20.70
2019-05-23T05:09:10.575Z,20.67
2019-05-23T05:11:40.846Z,19.27
2019-05-23T05:14:11.234Z,23.13
2019-05-23T05:16:41.024Z,21.50
2019-05-23T05:19:11.295Z,21.33
2019-05-23T05:21:40.965Z,22.10
2019-05-23T05:24:11.775Z,22.30
2019-05-23T05:26:41.452Z,20.87
2019-05-23T05:29:11.070Z,21.03
2019-05-23T05:31:40.693Z,21.70
2019-05-23T05:34:10.319Z,21.67
2019-05-23T05:36:40.624Z,22.73
2019-05-23T05:39:12.873Z,22.90
2019-05-23T05:41:43.331Z,23.90
2019-05-23T05:44:14.591Z,21.57
2019-05-23T05:46:45.082Z,21.87
2019-05-23T05:49:15.891Z,20.77
2019-05-23T05:51:45.609Z,20.23
2019-05-23T05:54:16.205Z,21.97
2019-05-23T05:56:46.658Z,18.20
2019-05-23T05:59:17.044Z,21.63
2019-05-23T06:01:47.272Z,22.53
2019-05-23T06:04:18.114Z,22.30
2019-05-23T06:06:59.271Z,23.17
2019-05-23T06:09:30.886Z,24.23
2019-05-23T06:12:01.165Z,21.63
2019-05-23T06:14:31.170Z,23.47
2019-05-23T06:17:02.411Z,22.20
2019-05-23T06:19:32.888Z,20.60
2019-05-23T06:22:04.219Z,19.70
2019-05-23T06:24:44.283Z,21.20
2019-05-23T06:27:10.444Z,20.27
2019-05-23T06:29:41.118Z,22.13
2019-05-23T06:32:13.589Z,22.30
2019-05-23T06:34:43.851Z,21.27
2019-05-23T06:37:13.646Z,26.70
2019-05-23T06:39:44.266Z,24.27
2019-05-23T06:42:15.059Z,22.90
2019-05-23T06:44:45.306Z,21.63
2019-05-23T06:47:15.009Z,20.53
2019-05-23T06:49:45.326Z,21.00
2019-05-23T06:52:15.152Z,60.80
2019-05-23T06:54:45.446Z,21.23
2019-05-23T06:57:15.956Z,21.07
2019-05-23T06:59:46.432Z,19.90
2019-05-23T07:02:16.245Z,17.33
2019-05-23T07:04:46.783Z,16.27
2019-05-23T07:07:17.613Z,16.00
2019-05-23T07:09:47.726Z,14.37
2019-05-23T07:12:17.508Z,12.90
2019-05-23T07:14:48.611Z,14.23
2019-05-23T07:17:19.643Z,13.33
2019-05-23T07:19:51.175Z,12.27
2019-05-23T07:22:21.821Z,9.87
2019-05-23T07:24:58.044Z,10.63
2019-05-23T07:27:25.488Z,17.50
2019-05-23T07:29:55.308Z,12.93
2019-05-23T07:32:25.589Z,10.13
2019-05-23T07:34:56.037Z,12.90
2019-05-23T07:37:25.869Z,12.83
2019-05-23T07:39:56.274Z,14.63
2019-05-23T07:42:27.355Z,11.80
2019-05-23T07:44:59.855Z,13.20
2019-05-23T07:47:30.381Z,12.63
2019-05-23T07:50:00.110Z,15.47
2019-05-23T07:52:29.845Z,15.27
2019-05-23T07:55:03.766Z,15.17
2019-05-23T07:57:33.727Z,12.63
2019-05-23T08:00:04.935Z,10.27
2019-05-23T08:02:37.074Z,10.30
2019-05-23T08:05:09.569Z,9.43
2019-05-23T08:07:40.489Z,9.20
2019-05-23T08:10:10.585Z,9.27
2019-05-23T08:12:40.245Z,8.57
2019-05-23T08:15:10.276Z,9.03
2019-05-23T08:17:40.551Z,8.90
2019-05-23T08:20:11.934Z,8.67
2019-05-23T08:22:41.561Z,7.87
2019-05-23T08:25:11.891Z,7.83
2019-05-23T08:27:41.802Z,7.93
2019-05-23T08:30:11.525Z,6.73
2019-05-23T08:32:41.147Z,7.07
2019-05-23T08:35:15.504Z,6.50
2019-05-23T08:37:42.810Z,7.07
2019-05-23T08:40:15.076Z,7.30
2019-05-23T08:42:45.385Z,6.87
2019-05-23T08:45:16.011Z,9.13
2019-05-23T08:47:45.712Z,7.70
2019-05-23T08:50:17.046Z,7.57
2019-05-23T08:52:47.489Z,7.47
2019-05-23T08:55:21.738Z,6.53
2019-05-23T08:57:53.663Z,6.47
2019-05-23T09:00:27.029Z,6.07
2019-05-23T09:02:59.315Z,5.20
2019-05-23T09:05:32.163Z,5.50
2019-05-23T09:08:02.868Z,5.37
2019-05-23T09:10:35.123Z,5.20
2019-05-23T09:13:05.770Z,5.20
2019-05-23T09:15:35.621Z,5.40
2019-05-23T09:18:06.237Z,5.30
2019-05-23T09:20:36.179Z,5.03
2019-05-23T09:23:05.827Z,5.17
2019-05-23T09:25:35.665Z,4.93
2019-05-23T09:28:06.762Z,4.53
2019-05-23T09:30:38.119Z,5.80
2019-05-23T09:33:09.252Z,5.70
2019-05-23T09:35:40.315Z,5.03
2019-05-23T09:38:10.155Z,4.50
2019-05-23T09:40:39.881Z,4.28
2019-05-23T09:43:09.714Z,4.40
2019-05-23T09:45:39.876Z,4.53
2019-05-23T09:48:09.506Z,4.37
2019-05-23T09:50:39.275Z,4.37
2019-05-23T09:53:09.592Z,13.57
2019-05-23T09:55:40.002Z,4.50
2019-05-23T09:58:09.931Z,4.23
2019-05-23T10:00:41.807Z,4.17
2019-05-23T10:03:11.607Z,4.33
2019-05-23T10:05:44.203Z,4.17
2019-05-23T10:08:15.184Z,3.43
2019-05-23T10:10:45.596Z,3.63
2019-05-23T10:13:16.704Z,4.00
2019-05-23T10:16:12.300Z,4.10
2019-05-23T10:18:43.996Z,4.13
2019-05-23T10:21:14.345Z,4.60
2019-05-23T10:23:44.762Z,4.40
2019-05-23T10:26:14.768Z,4.73
2019-05-23T10:28:44.379Z,4.30
2019-05-23T10:31:15.176Z,4.00
2019-05-23T10:33:44.900Z,4.83
2019-05-23T10:36:15.196Z,4.70
2019-05-23T10:38:44.967Z,5.00
2019-05-23T10:41:15.385Z,4.60
2019-05-23T10:43:45.160Z,4.77
2019-05-23T10:46:15.655Z,4.40
2019-05-23T10:48:45.367Z,4.27
2019-05-23T10:51:15.718Z,5.00
2019-05-23T10:53:45.467Z,4.67
2019-05-23T10:56:20.033Z,4.17
2019-05-23T10:58:46.483Z,5.10
2019-05-23T11:01:16.902Z,4.77
2019-05-23T11:03:47.426Z,4.90
2019-05-23T11:06:17.938Z,4.73
2019-05-23T11:08:48.563Z,5.60
2019-05-23T11:11:18.264Z,4.90
2019-05-23T11:13:48.970Z,5.03
2019-05-23T11:16:19.954Z,5.37
2019-05-23T11:18:50.443Z,4.90
2019-05-23T11:21:21.377Z,5.30
2019-05-23T11:23:52.170Z,5.13
2019-05-23T11:26:22.556Z,6.30
2019-05-23T11:28:52.990Z,6.00
2019-05-23T11:31:22.709Z,5.93
2019-05-23T11:33:53.056Z,5.17
2019-05-23T11:36:35.000Z,6.10
2019-05-23T11:38:54.126Z,6.20
2019-05-23T11:41:23.796Z,5.90
2019-05-23T11:43:53.439Z,6.70
2019-05-23T11:46:28.631Z,6.87
2019-05-23T11:48:58.636Z,6.70
2019-05-23T11:51:29.281Z,6.53
2019-05-23T11:54:07.794Z,7.20
2019-05-23T11:56:30.397Z,7.73
2019-05-23T11:59:01.755Z,6.50
2019-05-23T12:01:44.872Z,6.60
2019-05-23T12:04:22.041Z,7.33
2019-05-23T12:06:57.405Z,8.20
2019-05-23T12:09:27.150Z,7.13
2019-05-23T12:11:56.802Z,7.63
2019-05-23T12:14:27.081Z,9.00
2019-05-23T12:16:58.351Z,11.12
2019-05-23T12:19:29.110Z,39.13
2019-05-23T12:21:59.013Z,23.97
2019-05-23T12:24:34.444Z,29.87
2019-05-23T12:27:00.906Z,20.03
2019-05-23T12:29:31.228Z,26.50
2019-05-23T12:32:00.985Z,15.03
2019-05-23T12:34:31.387Z,11.93
2019-05-23T12:37:18.512Z,9.47
2019-05-23T12:39:33.995Z,7.30
2019-05-23T12:42:03.695Z,7.90
2019-05-23T12:44:34.154Z,8.50
2019-05-23T12:47:06.250Z,8.43
2019-05-23T12:49:46.157Z,8.78
2019-05-23T12:52:16.002Z,20.07
2019-05-23T12:54:46.471Z,11.30
2019-05-23T12:57:16.814Z,11.20
2019-05-23T12:59:46.630Z,9.53
2019-05-23T13:02:20.978Z,7.40
2019-05-23T13:04:51.854Z,12.30
2019-05-23T13:07:35.005Z,8.40
2019-05-23T13:09:53.946Z,8.07
2019-05-23T13:12:24.645Z,8.10
2019-05-23T13:14:58.760Z,7.83
2019-05-23T13:17:27.885Z,7.80
2019-05-23T13:19:57.894Z,8.50
2019-05-23T13:22:27.650Z,8.10
2019-05-23T13:24:57.328Z,8.17
2019-05-23T13:27:27.468Z,8.70
2019-05-23T13:29:57.776Z,8.53
2019-05-23T13:32:28.169Z,8.85
2019-05-23T13:34:57.885Z,8.58
2019-05-23T13:37:28.470Z,7.33
2019-05-23T13:39:58.305Z,7.25
2019-05-23T13:42:29.586Z,8.88
2019-05-23T13:44:59.979Z,8.20
2019-05-23T13:47:30.088Z,7.90
2019-05-23T13:49:59.919Z,7.65
2019-05-23T13:52:29.527Z,7.40
2019-05-23T13:54:59.850Z,7.50
2019-05-23T13:57:29.687Z,7.58
2019-05-23T13:59:59.936Z,8.13
2019-05-23T14:02:29.840Z,7.80
2019-05-23T14:05:00.455Z,8.83
2019-05-23T14:07:31.383Z,7.75
2019-05-23T14:10:01.316Z,8.78
2019-05-23T14:12:32.292Z,8.10
2019-05-23T14:15:02.877Z,7.58
2019-05-23T14:17:37.362Z,8.53
2019-05-23T14:20:08.410Z,8.18
2019-05-23T14:22:41.977Z,8.83
2019-05-23T14:25:12.465Z,8.98
2019-05-23T14:27:54.357Z,8.75
2019-05-23T14:30:39.788Z,8.08
2019-05-23T14:33:21.423Z,8.18
2019-05-23T14:35:52.503Z,8.85
2019-05-23T14:38:30.797Z,7.67
2019-05-23T14:40:54.334Z,7.58
2019-05-23T14:43:26.127Z,9.60
2019-05-23T14:46:13.857Z,8.17
2019-05-23T14:49:05.643Z,7.67
2019-05-23T14:52:12.724Z,6.97
2019-05-23T14:54:50.576Z,7.85
2019-05-23T14:57:21.090Z,7.62
2019-05-23T14:59:51.078Z,7.40
2019-05-23T15:02:21.459Z,7.75
2019-05-23T15:04:55.050Z,8.15
2019-05-23T15:07:25.865Z,7.83
2019-05-23T15:09:55.609Z,8.18
2019-05-23T15:12:26.133Z,8.55
2019-05-23T15:14:56.565Z,6.67
2019-05-23T15:17:26.373Z,7.17
2019-05-23T15:19:56.010Z,8.27
2019-05-23T15:22:26.578Z,7.40
2019-05-23T15:24:56.924Z,6.53
2019-05-23T15:27:27.462Z,6.33
2019-05-23T15:29:57.179Z,6.40
2019-05-23T15:32:26.821Z,5.60
2019-05-23T15:34:57.276Z,6.25
2019-05-23T15:37:27.739Z,6.50
2019-05-23T15:39:57.483Z,7.05
2019-05-23T15:42:29.026Z,5.62
2019-05-23T15:44:58.641Z,5.53
2019-05-23T15:47:32.668Z,6.27
2019-05-23T15:50:08.361Z,6.42
2019-05-23T15:53:11.155Z,6.03
2019-05-23T15:55:49.495Z,5.55
2019-05-23T15:58:38.367Z,6.33
2019-05-23T16:01:27.953Z,6.92
2019-05-23T16:04:00.825Z,6.25
2019-05-23T16:06:33.281Z,6.45
2019-05-23T16:09:03.056Z,6.67
2019-05-23T16:11:33.300Z,7.10
2019-05-23T16:14:03.880Z,6.43
2019-05-23T16:16:34.377Z,6.33
2019-05-23T16:19:05.000Z,7.87
2019-05-23T16:21:34.700Z,7.83
2019-05-23T16:24:06.563Z,7.10
2019-05-23T16:26:37.474Z,7.70
2019-05-23T16:29:09.323Z,7.70
2019-05-23T16:31:39.628Z,8.00
2019-05-23T16:34:09.369Z,8.23
2019-05-23T16:36:39.135Z,6.37
2019-05-23T16:39:09.717Z,7.97
2019-05-23T16:41:39.420Z,7.23
2019-05-23T16:44:09.690Z,7.30
2019-05-23T16:46:39.855Z,6.77
2019-05-23T16:49:10.255Z,7.20
2019-05-23T16:51:39.996Z,6.57
2019-05-23T16:54:11.421Z,7.03
2019-05-23T16:57:22.202Z,7.57
2019-05-23T17:00:10.334Z,7.33
2019-05-23T17:03:02.247Z,8.20
2019-05-23T17:05:53.892Z,7.97
2019-05-23T17:08:40.794Z,7.70
2019-05-23T17:11:42.506Z,7.50
2019-05-23T17:14:17.714Z,7.30
2019-05-23T17:16:54.592Z,7.07
2019-05-23T17:19:41.909Z,6.90
2019-05-23T17:22:39.432Z,6.67
2019-05-23T17:25:27.753Z,6.17
2019-05-23T17:28:02.997Z,6.50
2019-05-23T17:30:43.573Z,5.93
2019-05-23T17:33:14.265Z,5.07
2019-05-23T17:35:44.616Z,6.20
2019-05-23T17:38:14.604Z,6.13
2019-05-23T17:40:44.402Z,6.77
2019-05-23T17:43:14.817Z,6.73
2019-05-23T17:45:45.207Z,6.43
2019-05-23T17:48:15.624Z,5.40
2019-05-23T17:50:45.345Z,5.37
2019-05-23T17:53:15.693Z,4.70
2019-05-23T17:55:46.583Z,4.37
2019-05-23T17:58:17.390Z,4.80
2019-05-23T18:00:48.430Z,4.47
2019-05-23T18:03:18.968Z,4.63
2019-05-23T18:05:51.014Z,5.17
2019-05-23T18:08:21.023Z,4.67
2019-05-23T18:10:51.566Z,5.10
2019-05-23T18:13:21.708Z,4.67
2019-05-23T18:15:51.875Z,4.67
2019-05-23T18:18:23.762Z,4.93
2019-05-23T18:20:53.601Z,4.50
2019-05-23T18:23:23.822Z,4.43
2019-05-23T18:25:53.804Z,4.90
2019-05-23T18:28:24.361Z,4.77
2019-05-23T18:31:06.650Z,4.70
2019-05-23T18:33:35.063Z,4.87
2019-05-23T18:36:04.799Z,4.67
2019-05-23T18:38:35.913Z,4.23
2019-05-23T18:41:08.911Z,4.23
2019-05-23T18:43:38.131Z,3.57
2019-05-23T18:46:13.187Z,3.70
2019-05-23T18:48:43.748Z,3.53
2019-05-23T18:51:13.483Z,3.00
2019-05-23T18:53:43.075Z,3.13
2019-05-23T18:56:12.703Z,2.90
2019-05-23T18:58:43.041Z,3.00
2019-05-23T19:01:24.873Z,2.07
2019-05-23T19:03:55.895Z,2.20
2019-05-23T19:06:26.297Z,2.63
2019-05-23T19:08:57.068Z,3.10
2019-05-23T19:11:26.791Z,2.97
2019-05-23T19:13:57.188Z,3.30
2019-05-23T19:16:28.356Z,3.22
2019-05-23T19:18:58.771Z,3.50
2019-05-23T19:21:30.063Z,3.60
2019-05-23T19:23:59.692Z,4.33
2019-05-23T19:26:30.050Z,4.67
2019-05-23T19:29:00.502Z,4.40
2019-05-23T19:31:30.252Z,4.57
2019-05-23T19:33:59.975Z,4.90
2019-05-23T19:36:30.098Z,4.87
2019-05-23T19:39:01.145Z,5.27
2019-05-23T19:41:37.417Z,6.20
2019-05-23T19:44:05.112Z,6.03
2019-05-23T19:46:35.771Z,6.60
2019-05-23T19:49:07.098Z,7.00
2019-05-23T19:51:36.806Z,7.10
2019-05-23T19:54:08.522Z,8.37
2019-05-23T19:56:39.326Z,8.03
2019-05-23T19:59:09.735Z,8.17
2019-05-23T20:01:52.715Z,8.20
2019-05-23T20:04:28.412Z,9.00
2019-05-23T20:06:55.337Z,10.33
2019-05-23T20:09:25.810Z,10.23
2019-05-23T20:11:55.618Z,10.13
2019-05-23T20:14:25.334Z,11.20
2019-05-23T20:16:55.785Z,12.47
2019-05-23T20:19:26.166Z,12.15
2019-05-23T20:21:55.986Z,13.10
2019-05-23T20:24:26.272Z,14.30
2019-05-23T20:26:56.059Z,14.93
2019-05-23T20:29:25.715Z,14.80
2019-05-23T20:31:55.407Z,15.40
2019-05-23T20:34:26.132Z,16.23
2019-05-23T20:36:55.942Z,16.80
2019-05-23T20:39:25.665Z,17.43
2019-05-23T20:42:10.334Z,18.17
2019-05-23T20:44:27.632Z,20.50
2019-05-23T20:46:58.181Z,18.87
2019-05-23T20:49:28.582Z,20.27
2019-05-23T20:51:58.637Z,19.57
2019-05-23T20:54:29.174Z,22.07
2019-05-23T20:56:58.931Z,21.17
2019-05-23T20:59:29.479Z,22.53
2019-05-23T21:02:01.301Z,23.13
2019-05-23T21:04:31.686Z,22.53
2019-05-23T21:07:01.327Z,23.57
2019-05-23T21:09:31.050Z,24.17
2019-05-23T21:12:01.449Z,24.10
2019-05-23T21:14:31.354Z,23.77
2019-05-23T21:17:02.452Z,24.27
2019-05-23T21:19:32.825Z,25.10
2019-05-23T21:22:02.582Z,25.00
2019-05-23T21:24:34.025Z,23.70
2019-05-23T21:27:04.416Z,25.43
2019-05-23T21:29:34.925Z,25.50
2019-05-23T21:32:04.713Z,25.10
2019-05-23T21:34:34.388Z,23.00
2019-05-23T21:37:04.698Z,24.77
2019-05-23T21:39:35.209Z,24.90
2019-05-23T21:42:05.704Z,23.67
2019-05-23T21:44:36.239Z,24.23
2019-05-23T21:47:06.770Z,24.10
2019-05-23T21:49:36.535Z,25.17
2019-05-23T21:52:07.421Z,24.43
2019-05-23T21:54:37.780Z,24.27
2019-05-23T21:57:08.133Z,23.37
2019-05-23T21:59:38.499Z,23.27
2019-05-23T22:02:30.190Z,22.30
2019-05-23T22:05:17.048Z,22.17
2019-05-23T22:07:47.695Z,21.43
2019-05-23T22:10:18.070Z,22.37
2019-05-23T22:13:03.043Z,23.50
2019-05-23T22:15:30.672Z,22.83
2019-05-23T22:18:01.433Z,20.70
2019-05-23T22:20:31.843Z,21.68
2019-05-23T22:23:02.312Z,22.63
2019-05-23T22:25:32.413Z,21.87
2019-05-23T22:28:02.671Z,21.30
2019-05-23T22:30:33.187Z,22.23
2019-05-23T22:33:03.649Z,21.68
2019-05-23T22:35:34.133Z,21.87
2019-05-23T22:38:04.490Z,21.33
2019-05-23T22:40:38.125Z,23.50
2019-05-23T22:43:20.119Z,22.77
2019-05-23T22:45:39.188Z,22.67
2019-05-23T22:48:09.037Z,20.70
2019-05-23T22:50:39.326Z,21.30
2019-05-23T22:53:09.333Z,20.50
2019-05-23T22:55:39.628Z,21.80
2019-05-23T22:58:09.345Z,21.90
2019-05-23T23:00:41.510Z,21.57
2019-05-23T23:03:11.900Z,23.17
2019-05-23T23:05:42.271Z,22.53
2019-05-23T23:08:11.937Z,24.00
2019-05-23T23:10:42.677Z,22.13
2019-05-23T23:13:14.340Z,21.23
2019-05-23T23:15:45.412Z,21.90
2019-05-23T23:18:15.803Z,23.10
2019-05-23T23:20:46.337Z,23.53
2019-05-23T23:23:16.238Z,22.83
2019-05-23T23:25:45.840Z,23.07
2019-05-23T23:28:16.123Z,23.73
2019-05-23T23:30:47.203Z,22.43
2019-05-23T23:33:17.595Z,22.73
2019-05-23T23:35:47.951Z,23.53
2019-05-23T23:38:18.301Z,21.47
2019-05-23T23:40:48.711Z,22.47
2019-05-23T23:43:19.122Z,23.77
2019-05-23T23:46:07.272Z,21.10
2019-05-23T23:48:54.949Z,23.57
2019-05-23T23:51:42.896Z,23.00
2019-05-23T23:54:30.490Z,22.97
2019-05-23T23:57:18.476Z,22.87
2019-05-23T23:59:47.828Z,23.70
